Time,TemperatureF,DewpointF,PressureIn,WindDirection,WindDirectionDegrees,WindSpeedMPH,WindSpeedGustMPH,Humidity,HourlyPrecipIn,Conditions,Clouds,dailyrainin,SoftwareType,DateUTC
2013-02-25 00:12:00,31.5,13.0,30.01,NW,312,2.0,3.0,47,0.00,,,0.00,weatherlink.com 1.10,2013-02-25 07:12:00,
2013-02-25 00:27:00,30.7,13.0,30.01,NW,304,4.0,5.0,48,0.00,,,0.00,weatherlink.com 1.10,2013-02-25 07:27:00,
2013-02-25 00:42:00,30.5,13.0,30.01,NNW,336,2.0,3.0,49,0.00,,,0.00,weatherlink.com 1.10,2013-02-25 07:42:00,
2013-02-25 00:57:00,30.0,13.0,30.01,NNW,330,0.0,4.0,50,0.00,,,0.00,weatherlink.com 1.10,2013-02-25 07:57:00,
2013-02-25 01:13:00,29.1,13.0,30.02,NW,315,1.0,2.0,52,0.00,,,0.00,weatherlink.com 1.10,2013-02-25 08:13:00,
2013-02-25 01:28:00,29.7,13.0,30.02,NNW,333,3.0,6.0,51,0.00,,,0.00,weatherlink.com 1.10,2013-02-25 08:28:00,
2013-02-25 01:43:00,31.5,13.0,30.02,NNW,329,1.0,5.0,47,0.00,,,0.00,weatherlink.com 1.10,2013-02-25 08:43:00,
2013-02-25 01:58:00,30.6,14.0,30.02,SSW,198,1.0,3.0,51,0.00,,,0.00,weatherlink.com 1.10,2013-02-25 08:58:00,
2013-02-25 02:13:00,28.8,14.0,30.03,West,266,0.0,3.0,54,0.00,,,0.00,weatherlink.com 1.10,2013-02-25 09:13:00,
2013-02-25 02:28:00,27.3,14.0,30.04,West,266,0.0,1.0,57,0.00,,,0.00,weatherlink.com 1.10,2013-02-25 09:28:00,
2013-02-25 02:43:00,26.1,14.0,30.05,SSW,194,2.0,2.0,60,0.00,,,0.00,weatherlink.com 1.10,2013-02-25 09:43:00,
2013-02-25 02:58:00,25.4,14.0,30.05,South,184,1.0,4.0,61,0.00,,,0.00,weatherlink.com 1.10,2013-02-25 09:58:00,
2013-02-25 03:13:00,25.3,14.0,30.05,SW,216,1.0,3.0,62,0.00,,,0.00,weatherlink.com 1.10,2013-02-25 10:13:00,
2013-02-25 03:28:00,25.8,14.0,30.05,NNW,348,3.0,12.0,60,0.00,,,0.00,weatherlink.com 1.10,2013-02-25 10:28:00,
2013-02-25 03:43:00,31.4,14.0,30.06,NW,308,6.0,10.0,49,0.00,,,0.00,weatherlink.com 1.10,2013-02-25 10:43:00,
2013-02-25 03:58:00,33.2,14.0,30.07,NW,304,6.0,9.0,45,0.00,,,0.00,weatherlink.com 1.10,2013-02-25 10:58:00,
2013-02-25 04:13:00,33.3,14.0,30.07,North,355,3.0,8.0,45,0.00,,,0.00,weatherlink.com 1.10,2013-02-25 11:13:00,
2013-02-25 04:28:00,33.4,13.0,30.07,NNW,338,2.0,7.0,43,0.00,,,0.00,weatherlink.com 1.10,2013-02-25 11:28:00,
2013-02-25 04:43:00,33.2,13.0,30.07,NW,321,3.0,5.0,44,0.00,,,0.00,weatherlink.com 1.10,2013-02-25 11:43:00,
2013-02-25 04:58:00,31.9,13.0,30.07,NW,307,3.0,7.0,46,0.00,,,0.00,weatherlink.com 1.10,2013-02-25 11:58:00,
2013-02-25 05:13:00,32.1,13.0,30.08,SSW,206,3.0,5.0,46,0.00,,,0.00,weatherlink.com 1.10,2013-02-25 12:13:00,
2013-02-25 05:28:00,30.1,14.0,30.08,SSW,207,0.0,4.0,51,0.00,,,0.00,weatherlink.com 1.10,2013-02-25 12:28:00,
2013-02-25 05:44:00,27.2,13.0,30.09,WNW,290,2.0,4.0,56,0.00,,,0.00,weatherlink.com 1.10,2013-02-25 12:44:00,
2013-02-25 05:59:00,25.8,14.0,30.09,SSW,202,0.0,2.0,60,0.00,,,0.00,weatherlink.com 1.10,2013-02-25 12:59:00,
2013-02-25 06:14:00,24.5,13.0,30.10,South,177,2.0,2.0,63,0.00,,,0.00,weatherlink.com 1.10,2013-02-25 13:14:00,
2013-02-25 06:29:00,23.4,14.0,30.11,SSW,209,1.0,2.0,66,0.00,,,0.00,weatherlink.com 1.10,2013-02-25 13:29:00,
2013-02-25 06:44:00,22.6,13.0,30.11,SSE,165,1.0,1.0,68,0.00,,,0.00,weatherlink.com 1.10,2013-02-25 13:44:00,
2013-02-25 07:14:00,22.0,14.0,30.11,SSW,205,0.0,2.0,70,0.00,,,0.00,weatherlink.com 1.10,2013-02-25 14:14:00,
2013-02-25 07:29:00,22.1,14.0,30.10,SSW,205,0.0,1.0,71,0.00,,,0.00,weatherlink.com 1.10,2013-02-25 14:29:00,
2013-02-25 07:44:00,22.6,15.0,30.11,South,187,2.0,3.0,74,0.00,,,0.00,weatherlink.com 1.10,2013-02-25 14:44:00,
2013-02-25 07:59:00,24.7,17.0,30.12,SSE,161,1.0,2.0,72,0.00,,,0.00,weatherlink.com 1.10,2013-02-25 14:59:00,
2013-02-25 08:14:00,26.6,17.0,30.12,SSW,212,1.0,3.0,66,0.00,,,0.00,weatherlink.com 1.10,2013-02-25 15:14:00,
2013-02-25 08:29:00,29.3,18.0,30.13,SSW,197,2.0,3.0,62,0.00,,,0.00,weatherlink.com 1.10,2013-02-25 15:29:00,
2013-02-25 08:44:00,32.1,18.0,30.13,ESE,122,2.0,2.0,57,0.00,,,0.00,weatherlink.com 1.10,2013-02-25 15:44:00,
2013-02-25 08:59:00,34.9,17.0,30.13,WNW,292,2.0,5.0,48,0.00,,,0.00,weatherlink.com 1.10,2013-02-25 15:59:00,
2013-02-25 09:14:00,38.5,15.0,30.13,NNW,342,3.0,8.0,39,0.00,,,0.00,weatherlink.com 1.10,2013-02-25 16:14:00,
2013-02-25 09:29:00,40.1,14.0,30.13,North,351,5.0,10.0,35,0.00,,,0.00,weatherlink.com 1.10,2013-02-25 16:29:00,
2013-02-25 09:44:00,41.5,15.0,30.13,North,360,5.0,8.0,34,0.00,,,0.00,weatherlink.com 1.10,2013-02-25 16:44:00,
2013-02-25 09:59:00,42.8,15.0,30.12,North,360,2.0,10.0,32,0.00,,,0.00,weatherlink.com 1.10,2013-02-25 16:59:00,
2013-02-25 10:14:00,44.3,15.0,30.13,NNE,19,8.0,9.0,31,0.00,,,0.00,weatherlink.com 1.10,2013-02-25 17:14:00,
2013-02-25 10:29:00,45.2,15.0,30.12,NNW,340,4.0,6.0,29,0.00,,,0.00,weatherlink.com 1.10,2013-02-25 17:29:00,
2013-02-25 10:44:00,46.4,16.0,30.11,WNW,301,4.0,7.0,29,0.00,,,0.00,weatherlink.com 1.10,2013-02-25 17:44:00,
2013-02-25 10:59:00,48.1,16.0,30.11,WSW,244,2.0,7.0,28,0.00,,,0.00,weatherlink.com 1.10,2013-02-25 17:59:00,
2013-02-25 11:29:00,49.0,15.0,30.09,East,90,1.0,5.0,26,0.00,,,0.00,weatherlink.com 1.10,2013-02-25 18:29:00,
2013-02-25 11:45:00,50.9,15.0,30.08,West,269,1.0,3.0,24,0.00,,,0.00,weatherlink.com 1.10,2013-02-25 18:45:00,
2013-02-25 12:00:00,53.2,16.0,30.07,SW,236,1.0,7.0,23,0.00,,,0.00,weatherlink.com 1.10,2013-02-25 19:00:00,
2013-02-25 12:15:00,54.3,16.0,30.06,South,171,1.0,5.0,22,0.00,,,0.00,weatherlink.com 1.10,2013-02-25 19:15:00,
2013-02-25 12:30:00,54.9,14.0,30.05,North,355,2.0,6.0,20,0.00,,,0.00,weatherlink.com 1.10,2013-02-25 19:30:00,
2013-02-25 13:00:00,53.9,16.0,30.02,ESE,105,3.0,4.0,22,0.00,,,0.00,weatherlink.com 1.10,2013-02-25 20:00:00,
2013-02-25 13:15:00,56.5,16.0,30.01,SSW,195,2.0,4.0,20,0.00,,,0.00,weatherlink.com 1.10,2013-02-25 20:15:00,
2013-02-25 13:30:00,57.5,14.0,30.00,NW,306,3.0,4.0,18,0.00,,,0.00,weatherlink.com 1.10,2013-02-25 20:30:00,
2013-02-25 13:45:00,58.0,16.0,29.98,WNW,286,3.0,5.0,19,0.00,,,0.00,weatherlink.com 1.10,2013-02-25 20:45:00,
2013-02-25 14:00:00,59.1,15.0,29.98,NNW,346,2.0,6.0,18,0.00,,,0.00,weatherlink.com 1.10,2013-02-25 21:00:00,
2013-02-25 14:15:00,58.1,15.0,29.97,NE,48,2.0,4.0,18,0.00,,,0.00,weatherlink.com 1.10,2013-02-25 21:15:00,
2013-02-25 14:30:00,57.1,15.0,29.96,ENE,57,3.0,7.0,19,0.00,,,0.00,weatherlink.com 1.10,2013-02-25 21:30:00,
2013-02-25 14:45:00,57.7,15.0,29.96,South,185,1.0,5.0,19,0.00,,,0.00,weatherlink.com 1.10,2013-02-25 21:45:00,
2013-02-25 15:00:00,59.5,16.0,29.95,West,267,4.0,6.0,18,0.00,,,0.00,weatherlink.com 1.10,2013-02-25 22:00:00,
2013-02-25 15:15:00,60.7,17.0,29.94,SW,214,3.0,8.0,18,0.00,,,0.00,weatherlink.com 1.10,2013-02-25 22:15:00,
2013-02-25 15:30:00,59.9,15.0,29.94,NW,319,2.0,6.0,17,0.00,,,0.00,weatherlink.com 1.10,2013-02-25 22:30:00,
2013-02-25 15:45:00,58.9,15.0,29.93,WNW,300,1.0,5.0,18,0.00,,,0.00,weatherlink.com 1.10,2013-02-25 22:45:00,
2013-02-25 16:00:00,59.5,14.0,29.93,NNE,32,1.0,6.0,17,0.00,,,0.00,weatherlink.com 1.10,2013-02-25 23:00:00,
2013-02-25 16:15:00,59.2,14.0,29.93,SW,217,1.0,3.0,17,0.00,,,0.00,weatherlink.com 1.10,2013-02-25 23:15:00,
2013-02-25 16:30:00,59.8,16.0,29.92,SE,132,1.0,4.0,18,0.00,,,0.00,weatherlink.com 1.10,2013-02-25 23:30:00,
2013-02-25 16:45:00,59.7,16.0,29.92,SSW,203,0.0,6.0,18,0.00,,,0.00,weatherlink.com 1.10,2013-02-25 23:45:00,
2013-02-25 17:00:00,59.2,15.0,29.91,SSE,167,0.0,4.0,18,0.00,,,0.00,weatherlink.com 1.10,2013-02-26 00:00:00,
2013-02-25 17:15:00,58.7,15.0,29.90,SSE,161,1.0,4.0,18,0.00,,,0.00,weatherlink.com 1.10,2013-02-26 00:15:00,
2013-02-25 17:30:00,57.5,14.0,29.90,SSW,197,1.0,4.0,18,0.00,,,0.00,weatherlink.com 1.10,2013-02-26 00:30:00,
2013-02-25 17:45:00,56.2,14.0,29.90,SE,132,3.0,5.0,19,0.00,,,0.00,weatherlink.com 1.10,2013-02-26 00:45:00,
2013-02-25 18:00:00,54.5,17.0,29.90,SSW,207,0.0,7.0,23,0.00,,,0.00,weatherlink.com 1.10,2013-02-26 01:00:00,
2013-02-25 18:15:00,52.7,18.0,29.90,SSW,201,0.0,6.0,26,0.00,,,0.00,weatherlink.com 1.10,2013-02-26 01:15:00,
2013-02-25 18:30:00,50.7,18.0,29.90,SE,128,0.0,4.0,27,0.00,,,0.00,weatherlink.com 1.10,2013-02-26 01:30:00,
2013-02-25 18:45:00,48.8,18.0,29.90,East,101,2.0,7.0,29,0.00,,,0.00,weatherlink.com 1.10,2013-02-26 01:45:00,
2013-02-25 19:00:00,48.0,18.0,29.90,SE,126,0.0,8.0,30,0.00,,,0.00,weatherlink.com 1.10,2013-02-26 02:00:00,
2013-02-25 19:15:00,47.2,17.0,29.90,ESE,123,3.0,5.0,30,0.00,,,0.00,weatherlink.com 1.10,2013-02-26 02:15:00,
2013-02-25 19:30:00,46.2,18.0,29.90,East,81,2.0,5.0,32,0.00,,,0.00,weatherlink.com 1.10,2013-02-26 02:30:00,
2013-02-25 19:45:00,45.8,17.0,29.90,East,93,3.0,9.0,32,0.00,,,0.00,weatherlink.com 1.10,2013-02-26 02:45:00,
2013-02-25 20:00:00,44.9,17.0,29.91,SSE,157,1.0,8.0,33,0.00,,,0.00,weatherlink.com 1.10,2013-02-26 03:00:00,
2013-02-25 20:15:00,44.1,17.0,29.92,NE,34,2.0,3.0,33,0.00,,,0.00,weatherlink.com 1.10,2013-02-26 03:15:00,
2013-02-25 20:30:00,43.6,18.0,29.93,NNE,18,3.0,3.0,36,0.00,,,0.00,weatherlink.com 1.10,2013-02-26 03:30:00,
2013-02-25 20:45:00,42.7,17.0,29.93,NE,40,1.0,4.0,36,0.00,,,0.00,weatherlink.com 1.10,2013-02-26 03:45:00,
2013-02-25 21:00:00,43.4,17.0,29.93,East,79,1.0,6.0,35,0.00,,,0.00,weatherlink.com 1.10,2013-02-26 04:00:00,
2013-02-25 21:15:00,41.7,18.0,29.93,WNW,298,1.0,3.0,39,0.00,,,0.00,weatherlink.com 1.10,2013-02-26 04:15:00,
2013-02-25 21:30:00,39.9,18.0,29.93,WNW,293,1.0,3.0,42,0.00,,,0.00,weatherlink.com 1.10,2013-02-26 04:30:00,
2013-02-25 21:46:00,38.4,19.0,29.93,WNW,293,0.0,2.0,45,0.00,,,0.00,weatherlink.com 1.10,2013-02-26 04:46:00,
2013-02-25 22:01:00,36.7,19.0,29.93,NNW,345,1.0,2.0,49,0.00,,,0.00,weatherlink.com 1.10,2013-02-26 05:01:00,
2013-02-25 22:16:00,35.2,19.0,29.93,NW,323,0.0,2.0,52,0.00,,,0.00,weatherlink.com 1.10,2013-02-26 05:16:00,
2013-02-25 22:31:00,33.7,19.0,29.93,WNW,298,0.0,3.0,55,0.00,,,0.00,weatherlink.com 1.10,2013-02-26 05:31:00,
2013-02-25 22:46:00,32.8,19.0,29.93,WNW,298,0.0,2.0,58,0.00,,,0.00,weatherlink.com 1.10,2013-02-26 05:46:00,
2013-02-25 23:01:00,32.1,19.0,29.92,WNW,298,0.0,1.0,60,0.00,,,0.00,weatherlink.com 1.10,2013-02-26 06:01:00,
2013-02-25 23:16:00,30.9,20.0,29.93,WNW,298,0.0,1.0,63,0.00,,,0.00,weatherlink.com 1.10,2013-02-26 06:16:00,
2013-02-25 23:31:00,29.7,20.0,29.93,WNW,298,0.0,0.0,66,0.00,,,0.00,weatherlink.com 1.10,2013-02-26 06:31:00,
2013-02-25 23:46:00,28.6,19.0,29.93,WNW,298,0.0,1.0,67,0.00,,,0.00,weatherlink.com 1.10,2013-02-26 06:46:00,